sensor_id;sensor_type;location;lat;lon;timestamp;P1;durP1;ratioP1;P2;durP2;ratioP2
6693;SDS011;3384;42.628;23.380;2024-03-17T00:02:13;19.27;;;17.20;;
6693;SDS011;3384;42.628;23.380;2024-03-17T00:04:39;22.83;;;17.97;;
6693;SDS011;3384;42.628;23.380;2024-03-17T00:07:06;24.07;;;21.00;;
6693;SDS011;3384;42.628;23.380;2024-03-17T00:09:33;25.40;;;19.40;;
6693;SDS011;3384;42.628;23.380;2024-03-17T00:12:01;26.10;;;19.37;;
6693;SDS011;3384;42.628;23.380;2024-03-17T00:14:27;26.43;;;18.83;;
6693;SDS011;3384;42.628;23.380;2024-03-17T00:16:54;27.30;;;20.20;;
6693;SDS011;3384;42.628;23.380;2024-03-17T00:19:20;23.20;;;18.73;;
6693;SDS011;3384;42.628;23.380;2024-03-17T00:21:49;22.60;;;19.13;;
6693;SDS011;3384;42.628;23.380;2024-03-17T00:24:16;25.07;;;18.83;;
6693;SDS011;3384;42.628;23.380;2024-03-17T00:26:43;26.90;;;19.00;;
6693;SDS011;3384;42.628;23.380;2024-03-17T00:29:11;36.33;;;19.87;;
6693;SDS011;3384;42.628;23.380;2024-03-17T00:31:39;21.93;;;18.13;;
6693;SDS011;3384;42.628;23.380;2024-03-17T00:34:06;25.00;;;20.13;;
6693;SDS011;3384;42.628;23.380;2024-03-17T00:36:33;27.93;;;20.80;;
6693;SDS011;3384;42.628;23.380;2024-03-17T00:38:59;23.93;;;20.03;;
6693;SDS011;3384;42.628;23.380;2024-03-17T00:41:26;27.37;;;20.40;;
6693;SDS011;3384;42.628;23.380;2024-03-17T00:43:53;30.27;;;20.87;;
6693;SDS011;3384;42.628;23.380;2024-03-17T00:46:20;27.70;;;19.80;;
6693;SDS011;3384;42.628;23.380;2024-03-17T00:48:48;26.37;;;21.00;;
6693;SDS011;3384;42.628;23.380;2024-03-17T00:51:14;29.23;;;20.40;;
6693;SDS011;3384;42.628;23.380;2024-03-17T00:53:41;30.10;;;21.43;;
6693;SDS011;3384;42.628;23.380;2024-03-17T00:56:07;26.47;;;20.17;;
6693;SDS011;3384;42.628;23.380;2024-03-17T00:58:35;31.23;;;20.03;;
6693;SDS011;3384;42.628;23.380;2024-03-17T01:01:01;34.03;;;20.20;;
6693;SDS011;3384;42.628;23.380;2024-03-17T01:03:29;27.20;;;20.00;;
6693;SDS011;3384;42.628;23.380;2024-03-17T01:05:55;32.07;;;21.90;;
6693;SDS011;3384;42.628;23.380;2024-03-17T01:08:22;24.07;;;20.33;;
6693;SDS011;3384;42.628;23.380;2024-03-17T01:10:48;29.40;;;19.80;;
6693;SDS011;3384;42.628;23.380;2024-03-17T01:13:16;31.10;;;21.37;;
6693;SDS011;3384;42.628;23.380;2024-03-17T01:15:42;22.57;;;18.93;;
6693;SDS011;3384;42.628;23.380;2024-03-17T01:18:10;25.70;;;19.43;;
6693;SDS011;3384;42.628;23.380;2024-03-17T01:20:37;27.57;;;19.30;;
6693;SDS011;3384;42.628;23.380;2024-03-17T01:23:04;32.87;;;22.40;;
6693;SDS011;3384;42.628;23.380;2024-03-17T01:25:31;23.33;;;19.13;;
6693;SDS011;3384;42.628;23.380;2024-03-17T01:28:01;30.73;;;20.67;;
6693;SDS011;3384;42.628;23.380;2024-03-17T01:30:27;22.33;;;19.10;;
6693;SDS011;3384;42.628;23.380;2024-03-17T01:32:54;23.80;;;18.70;;
6693;SDS011;3384;42.628;23.380;2024-03-17T01:35:20;30.03;;;20.30;;
6693;SDS011;3384;42.628;23.380;2024-03-17T01:37:49;29.80;;;18.10;;
6693;SDS011;3384;42.628;23.380;2024-03-17T01:40:15;30.93;;;19.27;;
6693;SDS011;3384;42.628;23.380;2024-03-17T01:42:42;28.77;;;19.87;;
6693;SDS011;3384;42.628;23.380;2024-03-17T01:45:24;28.77;;;19.93;;
6693;SDS011;3384;42.628;23.380;2024-03-17T01:47:53;29.70;;;18.90;;
6693;SDS011;3384;42.628;23.380;2024-03-17T01:50:23;26.60;;;18.67;;
6693;SDS011;3384;42.628;23.380;2024-03-17T01:52:53;24.00;;;18.43;;
6693;SDS011;3384;42.628;23.380;2024-03-17T01:55:21;30.03;;;19.90;;
6693;SDS011;3384;42.628;23.380;2024-03-17T01:57:48;32.40;;;20.23;;
6693;SDS011;3384;42.628;23.380;2024-03-17T02:00:15;27.27;;;19.97;;
6693;SDS011;3384;42.628;23.380;2024-03-17T02:02:43;27.20;;;19.67;;
6693;SDS011;3384;42.628;23.380;2024-03-17T02:05:09;29.00;;;19.50;;
6693;SDS011;3384;42.628;23.380;2024-03-17T02:07:36;27.00;;;19.17;;
6693;SDS011;3384;42.628;23.380;2024-03-17T02:10:04;26.77;;;20.30;;
6693;SDS011;3384;42.628;23.380;2024-03-17T02:12:33;27.40;;;19.63;;
6693;SDS011;3384;42.628;23.380;2024-03-17T02:15:00;24.10;;;20.30;;
6693;SDS011;3384;42.628;23.380;2024-03-17T02:17:30;33.47;;;21.73;;
6693;SDS011;3384;42.628;23.380;2024-03-17T02:19:56;28.00;;;20.07;;
6693;SDS011;3384;42.628;23.380;2024-03-17T02:22:25;28.80;;;19.40;;
6693;SDS011;3384;42.628;23.380;2024-03-17T02:24:51;27.97;;;21.03;;
6693;SDS011;3384;42.628;23.380;2024-03-17T02:27:18;24.27;;;18.80;;
6693;SDS011;3384;42.628;23.380;2024-03-17T02:29:44;33.40;;;20.63;;
6693;SDS011;3384;42.628;23.380;2024-03-17T02:32:11;27.97;;;20.93;;
6693;SDS011;3384;42.628;23.380;2024-03-17T02:34:37;25.37;;;19.80;;
6693;SDS011;3384;42.628;23.380;2024-03-17T02:37:06;33.00;;;20.80;;
6693;SDS011;3384;42.628;23.380;2024-03-17T02:39:34;27.13;;;18.60;;
6693;SDS011;3384;42.628;23.380;2024-03-17T02:42:02;24.63;;;18.70;;
6693;SDS011;3384;42.628;23.380;2024-03-17T02:44:30;24.13;;;18.57;;
6693;SDS011;3384;42.628;23.380;2024-03-17T02:46:57;30.23;;;19.10;;
6693;SDS011;3384;42.628;23.380;2024-03-17T02:49:24;36.07;;;20.77;;
6693;SDS011;3384;42.628;23.380;2024-03-17T02:51:52;32.57;;;18.43;;
6693;SDS011;3384;42.628;23.380;2024-03-17T02:54:19;24.23;;;17.83;;
6693;SDS011;3384;42.628;23.380;2024-03-17T02:56:48;23.03;;;17.50;;
6693;SDS011;3384;42.628;23.380;2024-03-17T02:59:15;23.73;;;17.43;;
6693;SDS011;3384;42.628;23.380;2024-03-17T03:01:42;29.53;;;18.97;;
6693;SDS011;3384;42.628;23.380;2024-03-17T03:04:10;25.43;;;17.90;;
6693;SDS011;3384;42.628;23.380;2024-03-17T03:06:37;34.13;;;18.47;;
6693;SDS011;3384;42.628;23.380;2024-03-17T03:09:05;27.50;;;18.50;;
6693;SDS011;3384;42.628;23.380;2024-03-17T03:11:37;26.30;;;18.13;;
6693;SDS011;3384;42.628;23.380;2024-03-17T03:14:06;29.10;;;16.67;;
6693;SDS011;3384;42.628;23.380;2024-03-17T03:16:33;24.63;;;17.73;;
6693;SDS011;3384;42.628;23.380;2024-03-17T03:19:00;20.53;;;17.80;;
6693;SDS011;3384;42.628;23.380;2024-03-17T03:21:26;23.20;;;17.13;;
6693;SDS011;3384;42.628;23.380;2024-03-17T03:23:53;26.13;;;17.27;;
6693;SDS011;3384;42.628;23.380;2024-03-17T03:26:20;25.00;;;17.03;;
6693;SDS011;3384;42.628;23.380;2024-03-17T03:28:48;19.53;;;15.80;;
6693;SDS011;3384;42.628;23.380;2024-03-17T03:31:17;22.03;;;15.97;;
6693;SDS011;3384;42.628;23.380;2024-03-17T03:33:44;20.30;;;17.40;;
6693;SDS011;3384;42.628;23.380;2024-03-17T03:36:12;20.50;;;16.47;;
6693;SDS011;3384;42.628;23.380;2024-03-17T03:38:41;18.27;;;15.00;;
6693;SDS011;3384;42.628;23.380;2024-03-17T03:41:09;17.80;;;14.77;;
6693;SDS011;3384;42.628;23.380;2024-03-17T03:43:37;21.77;;;16.87;;
6693;SDS011;3384;42.628;23.380;2024-03-17T03:46:04;21.57;;;15.93;;
6693;SDS011;3384;42.628;23.380;2024-03-17T03:48:33;21.37;;;15.67;;
6693;SDS011;3384;42.628;23.380;2024-03-17T03:51:03;18.20;;;14.60;;
6693;SDS011;3384;42.628;23.380;2024-03-17T03:53:31;17.40;;;13.90;;
6693;SDS011;3384;42.628;23.380;2024-03-17T03:55:58;21.43;;;15.43;;
6693;SDS011;3384;42.628;23.380;2024-03-17T03:58:26;20.17;;;15.53;;
6693;SDS011;3384;42.628;23.380;2024-03-17T04:00:54;23.03;;;15.20;;
6693;SDS011;3384;42.628;23.380;2024-03-17T04:03:21;16.23;;;13.20;;
6693;SDS011;3384;42.628;23.380;2024-03-17T04:05:50;19.40;;;16.30;;
6693;SDS011;3384;42.628;23.380;2024-03-17T04:08:19;16.70;;;13.93;;
6693;SDS011;3384;42.628;23.380;2024-03-17T04:10:49;16.43;;;14.20;;
6693;SDS011;3384;42.628;23.380;2024-03-17T04:13:17;19.30;;;14.60;;
6693;SDS011;3384;42.628;23.380;2024-03-17T04:15:44;17.00;;;14.73;;
6693;SDS011;3384;42.628;23.380;2024-03-17T04:18:11;19.07;;;15.80;;
6693;SDS011;3384;42.628;23.380;2024-03-17T04:20:39;22.03;;;15.50;;
6693;SDS011;3384;42.628;23.380;2024-03-17T04:23:08;24.87;;;15.77;;
6693;SDS011;3384;42.628;23.380;2024-03-17T04:25:35;21.73;;;15.10;;
6693;SDS011;3384;42.628;23.380;2024-03-17T04:28:03;22.03;;;16.00;;
6693;SDS011;3384;42.628;23.380;2024-03-17T04:30:30;25.73;;;15.23;;
6693;SDS011;3384;42.628;23.380;2024-03-17T04:32:58;28.50;;;15.30;;
6693;SDS011;3384;42.628;23.380;2024-03-17T04:35:25;19.90;;;15.60;;
6693;SDS011;3384;42.628;23.380;2024-03-17T04:37:52;22.37;;;17.13;;
6693;SDS011;3384;42.628;23.380;2024-03-17T04:40:20;21.23;;;16.17;;
6693;SDS011;3384;42.628;23.380;2024-03-17T04:42:47;23.90;;;16.90;;
6693;SDS011;3384;42.628;23.380;2024-03-17T04:45:14;20.40;;;16.40;;
6693;SDS011;3384;42.628;23.380;2024-03-17T04:47:41;18.07;;;15.40;;
6693;SDS011;3384;42.628;23.380;2024-03-17T04:50:09;23.07;;;15.40;;
6693;SDS011;3384;42.628;23.380;2024-03-17T04:52:37;23.03;;;16.13;;
6693;SDS011;3384;42.628;23.380;2024-03-17T04:55:04;19.40;;;15.10;;
6693;SDS011;3384;42.628;23.380;2024-03-17T04:57:33;20.93;;;15.27;;
6693;SDS011;3384;42.628;23.380;2024-03-17T05:00:01;26.60;;;16.40;;
6693;SDS011;3384;42.628;23.380;2024-03-17T05:02:31;16.80;;;15.00;;
6693;SDS011;3384;42.628;23.380;2024-03-17T05:04:58;22.27;;;16.77;;
6693;SDS011;3384;42.628;23.380;2024-03-17T05:07:25;26.70;;;15.40;;
6693;SDS011;3384;42.628;23.380;2024-03-17T05:09:52;19.87;;;15.37;;
6693;SDS011;3384;42.628;23.380;2024-03-17T05:12:19;16.87;;;14.50;;
6693;SDS011;3384;42.628;23.380;2024-03-17T05:14:47;23.80;;;15.63;;
6693;SDS011;3384;42.628;23.380;2024-03-17T05:17:14;19.13;;;14.90;;
6693;SDS011;3384;42.628;23.380;2024-03-17T05:19:41;22.73;;;15.03;;
6693;SDS011;3384;42.628;23.380;2024-03-17T05:22:08;19.40;;;15.40;;
6693;SDS011;3384;42.628;23.380;2024-03-17T05:24:35;17.10;;;15.00;;
6693;SDS011;3384;42.628;23.380;2024-03-17T05:27:03;20.43;;;15.20;;
6693;SDS011;3384;42.628;23.380;2024-03-17T05:29:30;19.70;;;14.90;;
6693;SDS011;3384;42.628;23.380;2024-03-17T05:31:58;22.70;;;15.70;;
6693;SDS011;3384;42.628;23.380;2024-03-17T05:34:27;22.00;;;16.30;;
6693;SDS011;3384;42.628;23.380;2024-03-17T05:36:54;32.00;;;16.70;;
6693;SDS011;3384;42.628;23.380;2024-03-17T05:39:21;32.27;;;16.97;;
6693;SDS011;3384;42.628;23.380;2024-03-17T05:41:48;20.80;;;16.40;;
6693;SDS011;3384;42.628;23.380;2024-03-17T05:44:15;36.97;;;17.27;;
6693;SDS011;3384;42.628;23.380;2024-03-17T05:46:43;18.30;;;15.47;;
6693;SDS011;3384;42.628;23.380;2024-03-17T05:49:11;25.73;;;15.93;;
6693;SDS011;3384;42.628;23.380;2024-03-17T05:51:38;22.70;;;17.20;;
6693;SDS011;3384;42.628;23.380;2024-03-17T05:54:05;19.17;;;17.17;;
6693;SDS011;3384;42.628;23.380;2024-03-17T05:56:32;32.33;;;20.70;;
6693;SDS011;3384;42.628;23.380;2024-03-17T05:59:00;22.27;;;17.13;;
6693;SDS011;3384;42.628;23.380;2024-03-17T06:01:27;24.43;;;16.80;;
6693;SDS011;3384;42.628;23.380;2024-03-17T06:03:54;19.77;;;17.20;;
6693;SDS011;3384;42.628;23.380;2024-03-17T06:06:23;16.80;;;14.90;;
6693;SDS011;3384;42.628;23.380;2024-03-17T06:08:50;18.13;;;15.13;;
6693;SDS011;3384;42.628;23.380;2024-03-17T06:11:17;17.70;;;15.30;;
6693;SDS011;3384;42.628;23.380;2024-03-17T06:13:44;17.80;;;15.17;;
6693;SDS011;3384;42.628;23.380;2024-03-17T06:16:11;21.60;;;15.03;;
6693;SDS011;3384;42.628;23.380;2024-03-17T06:18:38;21.73;;;15.20;;
6693;SDS011;3384;42.628;23.380;2024-03-17T06:21:05;16.70;;;14.43;;
6693;SDS011;3384;42.628;23.380;2024-03-17T06:23:35;23.43;;;15.23;;
6693;SDS011;3384;42.628;23.380;2024-03-17T06:26:03;19.37;;;15.50;;
6693;SDS011;3384;42.628;23.380;2024-03-17T06:28:31;23.23;;;15.67;;
6693;SDS011;3384;42.628;23.380;2024-03-17T06:30:58;18.33;;;16.40;;
6693;SDS011;3384;42.628;23.380;2024-03-17T06:33:26;23.13;;;17.27;;
6693;SDS011;3384;42.628;23.380;2024-03-17T06:35:54;19.17;;;16.43;;
6693;SDS011;3384;42.628;23.380;2024-03-17T06:38:22;24.50;;;16.30;;
6693;SDS011;3384;42.628;23.380;2024-03-17T06:40:50;20.13;;;16.00;;
6693;SDS011;3384;42.628;23.380;2024-03-17T06:43:18;19.47;;;15.73;;
6693;SDS011;3384;42.628;23.380;2024-03-17T06:45:55;23.00;;;18.20;;
6693;SDS011;3384;42.628;23.380;2024-03-17T06:48:23;19.40;;;16.70;;
6693;SDS011;3384;42.628;23.380;2024-03-17T06:50:50;24.77;;;18.03;;
6693;SDS011;3384;42.628;23.380;2024-03-17T06:53:19;25.13;;;17.93;;
6693;SDS011;3384;42.628;23.380;2024-03-17T06:55:57;24.53;;;18.10;;
6693;SDS011;3384;42.628;23.380;2024-03-17T06:58:26;27.20;;;19.27;;
6693;SDS011;3384;42.628;23.380;2024-03-17T07:00:55;23.57;;;18.97;;
6693;SDS011;3384;42.628;23.380;2024-03-17T07:03:23;28.83;;;20.97;;
6693;SDS011;3384;42.628;23.380;2024-03-17T07:05:52;31.87;;;20.60;;
6693;SDS011;3384;42.628;23.380;2024-03-17T07:08:19;25.83;;;19.47;;
6693;SDS011;3384;42.628;23.380;2024-03-17T07:11:01;30.67;;;21.07;;
6693;SDS011;3384;42.628;23.380;2024-03-17T07:13:30;30.23;;;20.20;;
6693;SDS011;3384;42.628;23.380;2024-03-17T07:15:58;29.47;;;21.50;;
6693;SDS011;3384;42.628;23.380;2024-03-17T07:18:26;24.00;;;18.50;;
6693;SDS011;3384;42.628;23.380;2024-03-17T07:20:56;25.30;;;19.10;;
6693;SDS011;3384;42.628;23.380;2024-03-17T07:23:23;26.00;;;19.63;;
6693;SDS011;3384;42.628;23.380;2024-03-17T07:25:54;31.83;;;20.80;;
6693;SDS011;3384;42.628;23.380;2024-03-17T07:28:23;28.70;;;19.57;;
6693;SDS011;3384;42.628;23.380;2024-03-17T07:30:50;27.30;;;19.63;;
6693;SDS011;3384;42.628;23.380;2024-03-17T07:33:18;31.27;;;20.30;;
6693;SDS011;3384;42.628;23.380;2024-03-17T07:35:47;30.47;;;19.10;;
6693;SDS011;3384;42.628;23.380;2024-03-17T07:38:14;23.10;;;20.40;;
6693;SDS011;3384;42.628;23.380;2024-03-17T07:40:42;22.30;;;18.73;;
6693;SDS011;3384;42.628;23.380;2024-03-17T07:43:09;29.83;;;20.53;;
6693;SDS011;3384;42.628;23.380;2024-03-17T07:45:37;22.80;;;20.10;;
6693;SDS011;3384;42.628;23.380;2024-03-17T07:48:04;23.97;;;19.80;;
6693;SDS011;3384;42.628;23.380;2024-03-17T07:50:32;37.10;;;19.30;;
6693;SDS011;3384;42.628;23.380;2024-03-17T07:53:00;22.30;;;19.63;;
6693;SDS011;3384;42.628;23.380;2024-03-17T07:55:28;21.00;;;18.10;;
6693;SDS011;3384;42.628;23.380;2024-03-17T07:57:56;21.60;;;18.57;;
6693;SDS011;3384;42.628;23.380;2024-03-17T08:00:23;20.17;;;18.27;;
6693;SDS011;3384;42.628;23.380;2024-03-17T08:02:52;22.60;;;19.93;;
6693;SDS011;3384;42.628;23.380;2024-03-17T08:05:20;22.57;;;20.10;;
6693;SDS011;3384;42.628;23.380;2024-03-17T08:07:47;25.37;;;19.77;;
6693;SDS011;3384;42.628;23.380;2024-03-17T08:10:14;24.30;;;20.73;;
6693;SDS011;3384;42.628;23.380;2024-03-17T08:12:43;30.10;;;21.37;;
6693;SDS011;3384;42.628;23.380;2024-03-17T08:15:10;27.97;;;21.70;;
6693;SDS011;3384;42.628;23.380;2024-03-17T08:17:37;30.10;;;22.80;;
6693;SDS011;3384;42.628;23.380;2024-03-17T08:20:07;26.20;;;23.23;;
6693;SDS011;3384;42.628;23.380;2024-03-17T08:22:34;27.43;;;22.53;;
6693;SDS011;3384;42.628;23.380;2024-03-17T08:25:01;28.20;;;22.80;;
6693;SDS011;3384;42.628;23.380;2024-03-17T08:27:30;24.13;;;21.60;;
6693;SDS011;3384;42.628;23.380;2024-03-17T08:29:57;33.47;;;24.50;;
6693;SDS011;3384;42.628;23.380;2024-03-17T08:32:24;28.37;;;22.57;;
6693;SDS011;3384;42.628;23.380;2024-03-17T08:34:51;27.20;;;23.03;;
6693;SDS011;3384;42.628;23.380;2024-03-17T08:37:18;26.60;;;20.63;;
6693;SDS011;3384;42.628;23.380;2024-03-17T08:39:46;32.70;;;22.70;;
6693;SDS011;3384;42.628;23.380;2024-03-17T08:42:13;30.43;;;21.73;;
6693;SDS011;3384;42.628;23.380;2024-03-17T08:44:40;22.47;;;20.13;;
6693;SDS011;3384;42.628;23.380;2024-03-17T08:47:07;27.37;;;20.33;;
6693;SDS011;3384;42.628;23.380;2024-03-17T08:49:34;25.20;;;22.40;;
6693;SDS011;3384;42.628;23.380;2024-03-17T08:52:01;21.37;;;19.23;;
6693;SDS011;3384;42.628;23.380;2024-03-17T08:54:30;21.67;;;19.57;;
6693;SDS011;3384;42.628;23.380;2024-03-17T08:56:57;25.83;;;17.93;;
6693;SDS011;3384;42.628;23.380;2024-03-17T08:59:24;25.37;;;20.47;;
6693;SDS011;3384;42.628;23.380;2024-03-17T09:01:51;21.93;;;19.63;;
6693;SDS011;3384;42.628;23.380;2024-03-17T09:04:18;23.40;;;21.00;;
6693;SDS011;3384;42.628;23.380;2024-03-17T09:06:45;31.43;;;21.30;;
6693;SDS011;3384;42.628;23.380;2024-03-17T09:09:12;22.67;;;19.87;;
6693;SDS011;3384;42.628;23.380;2024-03-17T09:11:41;27.13;;;20.87;;
6693;SDS011;3384;42.628;23.380;2024-03-17T09:14:08;23.17;;;20.73;;
6693;SDS011;3384;42.628;23.380;2024-03-17T09:16:36;24.83;;;19.33;;
6693;SDS011;3384;42.628;23.380;2024-03-17T09:19:03;28.93;;;20.23;;
6693;SDS011;3384;42.628;23.380;2024-03-17T09:21:30;27.90;;;20.53;;
6693;SDS011;3384;42.628;23.380;2024-03-17T09:23:59;29.47;;;20.37;;
6693;SDS011;3384;42.628;23.380;2024-03-17T09:26:28;24.17;;;20.23;;
6693;SDS011;3384;42.628;23.380;2024-03-17T09:28:57;22.30;;;18.50;;
6693;SDS011;3384;42.628;23.380;2024-03-17T09:31:24;21.27;;;19.07;;
6693;SDS011;3384;42.628;23.380;2024-03-17T09:33:51;20.80;;;18.80;;
6693;SDS011;3384;42.628;23.380;2024-03-17T09:36:18;19.00;;;17.40;;
6693;SDS011;3384;42.628;23.380;2024-03-17T09:38:45;17.63;;;16.33;;
6693;SDS011;3384;42.628;23.380;2024-03-17T09:41:16;18.33;;;16.73;;
6693;SDS011;3384;42.628;23.380;2024-03-17T09:43:47;17.50;;;16.10;;
6693;SDS011;3384;42.628;23.380;2024-03-17T09:46:16;20.60;;;18.67;;
6693;SDS011;3384;42.628;23.380;2024-03-17T09:48:44;18.70;;;16.83;;
6693;SDS011;3384;42.628;23.380;2024-03-17T09:51:18;17.93;;;16.33;;
6693;SDS011;3384;42.628;23.380;2024-03-17T09:53:46;17.10;;;15.70;;
6693;SDS011;3384;42.628;23.380;2024-03-17T09:56:14;17.23;;;16.03;;
6693;SDS011;3384;42.628;23.380;2024-03-17T09:58:44;16.80;;;15.40;;
6693;SDS011;3384;42.628;23.380;2024-03-17T10:01:10;14.77;;;13.90;;
6693;SDS011;3384;42.628;23.380;2024-03-17T10:03:45;17.20;;;15.43;;
6693;SDS011;3384;42.628;23.380;2024-03-17T10:06:16;15.20;;;14.13;;
6693;SDS011;3384;42.628;23.380;2024-03-17T10:08:46;15.63;;;14.63;;
6693;SDS011;3384;42.628;23.380;2024-03-17T10:13:58;14.77;;;14.00;;
6693;SDS011;3384;42.628;23.380;2024-03-17T10:16:27;12.90;;;12.40;;
6693;SDS011;3384;42.628;23.380;2024-03-17T10:22:15;15.27;;;13.90;;
6693;SDS011;3384;42.628;23.380;2024-03-17T10:24:42;15.20;;;14.33;;
6693;SDS011;3384;42.628;23.380;2024-03-17T10:27:09;14.50;;;13.70;;
6693;SDS011;3384;42.628;23.380;2024-03-17T10:32:12;13.37;;;12.47;;
6693;SDS011;3384;42.628;23.380;2024-03-17T10:34:41;13.77;;;13.27;;
6693;SDS011;3384;42.628;23.380;2024-03-17T10:37:09;14.10;;;13.30;;
6693;SDS011;3384;42.628;23.380;2024-03-17T10:39:39;14.17;;;13.40;;
6693;SDS011;3384;42.628;23.380;2024-03-17T10:42:07;14.60;;;13.90;;
6693;SDS011;3384;42.628;23.380;2024-03-17T10:44:35;13.33;;;12.83;;
6693;SDS011;3384;42.628;23.380;2024-03-17T10:47:03;12.83;;;12.27;;
6693;SDS011;3384;42.628;23.380;2024-03-17T10:49:35;11.90;;;11.60;;
6693;SDS011;3384;42.628;23.380;2024-03-17T10:52:03;13.07;;;12.40;;
6693;SDS011;3384;42.628;23.380;2024-03-17T10:54:34;12.60;;;12.10;;
6693;SDS011;3384;42.628;23.380;2024-03-17T10:57:06;13.70;;;13.20;;
6693;SDS011;3384;42.628;23.380;2024-03-17T10:59:53;13.00;;;12.40;;
6693;SDS011;3384;42.628;23.380;2024-03-17T11:02:21;13.97;;;13.27;;
6693;SDS011;3384;42.628;23.380;2024-03-17T11:04:50;13.73;;;13.00;;
6693;SDS011;3384;42.628;23.380;2024-03-17T11:13:37;13.40;;;12.90;;
6693;SDS011;3384;42.628;23.380;2024-03-17T11:16:04;13.53;;;12.83;;
6693;SDS011;3384;42.628;23.380;2024-03-17T11:18:52;12.33;;;12.00;;
6693;SDS011;3384;42.628;23.380;2024-03-17T11:21:20;12.97;;;12.50;;
6693;SDS011;3384;42.628;23.380;2024-03-17T11:23:57;13.07;;;12.67;;
6693;SDS011;3384;42.628;23.380;2024-03-17T11:26:29;12.60;;;12.10;;
6693;SDS011;3384;42.628;23.380;2024-03-17T11:28:59;13.67;;;12.73;;
6693;SDS011;3384;42.628;23.380;2024-03-17T11:31:32;12.93;;;12.40;;
6693;SDS011;3384;42.628;23.380;2024-03-17T11:33:58;13.10;;;12.63;;
6693;SDS011;3384;42.628;23.380;2024-03-17T11:36:34;13.83;;;13.10;;
6693;SDS011;3384;42.628;23.380;2024-03-17T11:39:04;14.17;;;13.67;;
6693;SDS011;3384;42.628;23.380;2024-03-17T11:41:42;14.80;;;14.10;;
6693;SDS011;3384;42.628;23.380;2024-03-17T11:46:57;15.20;;;14.30;;
6693;SDS011;3384;42.628;23.380;2024-03-17T11:49:26;16.10;;;15.23;;
6693;SDS011;3384;42.628;23.380;2024-03-17T11:51:53;15.40;;;14.57;;
6693;SDS011;3384;42.628;23.380;2024-03-17T11:54:23;15.20;;;14.10;;
6693;SDS011;3384;42.628;23.380;2024-03-17T11:56:52;14.03;;;13.30;;
6693;SDS011;3384;42.628;23.380;2024-03-17T11:59:21;14.53;;;13.80;;
6693;SDS011;3384;42.628;23.380;2024-03-17T12:01:50;14.50;;;13.70;;
6693;SDS011;3384;42.628;23.380;2024-03-17T12:04:17;13.27;;;12.87;;
6693;SDS011;3384;42.628;23.380;2024-03-17T12:06:45;13.87;;;13.17;;
6693;SDS011;3384;42.628;23.380;2024-03-17T12:09:16;13.90;;;12.60;;
6693;SDS011;3384;42.628;23.380;2024-03-17T12:11:47;13.93;;;13.53;;
6693;SDS011;3384;42.628;23.380;2024-03-17T12:14:17;13.43;;;12.77;;
6693;SDS011;3384;42.628;23.380;2024-03-17T12:16:51;14.47;;;13.77;;
6693;SDS011;3384;42.628;23.380;2024-03-17T12:19:18;14.47;;;13.77;;
6693;SDS011;3384;42.628;23.380;2024-03-17T12:21:47;13.73;;;13.33;;
6693;SDS011;3384;42.628;23.380;2024-03-17T12:24:17;13.93;;;13.20;;
6693;SDS011;3384;42.628;23.380;2024-03-17T12:26:46;12.90;;;12.50;;
6693;SDS011;3384;42.628;23.380;2024-03-17T12:29:23;14.43;;;13.87;;
6693;SDS011;3384;42.628;23.380;2024-03-17T12:31:54;14.20;;;13.50;;
6693;SDS011;3384;42.628;23.380;2024-03-17T12:34:22;14.00;;;13.40;;
6693;SDS011;3384;42.628;23.380;2024-03-17T12:36:51;14.33;;;13.83;;
6693;SDS011;3384;42.628;23.380;2024-03-17T12:39:19;13.90;;;13.30;;
6693;SDS011;3384;42.628;23.380;2024-03-17T12:44:40;15.20;;;14.50;;
6693;SDS011;3384;42.628;23.380;2024-03-17T12:47:15;14.73;;;13.83;;
6693;SDS011;3384;42.628;23.380;2024-03-17T12:49:47;14.77;;;14.20;;
6693;SDS011;3384;42.628;23.380;2024-03-17T12:52:17;14.20;;;13.70;;
6693;SDS011;3384;42.628;23.380;2024-03-17T12:54:56;14.07;;;13.57;;
6693;SDS011;3384;42.628;23.380;2024-03-17T12:57:37;14.10;;;13.60;;
6693;SDS011;3384;42.628;23.380;2024-03-17T13:00:22;13.10;;;12.60;;
6693;SDS011;3384;42.628;23.380;2024-03-17T13:03:00;13.90;;;13.13;;
6693;SDS011;3384;42.628;23.380;2024-03-17T13:05:27;14.03;;;13.33;;
6693;SDS011;3384;42.628;23.380;2024-03-17T13:07:54;13.80;;;13.30;;
6693;SDS011;3384;42.628;23.380;2024-03-17T13:10:23;14.07;;;13.13;;
6693;SDS011;3384;42.628;23.380;2024-03-17T13:12:58;15.47;;;14.10;;
6693;SDS011;3384;42.628;23.380;2024-03-17T13:15:26;14.90;;;14.30;;
6693;SDS011;3384;42.628;23.380;2024-03-17T13:17:53;13.27;;;12.77;;
6693;SDS011;3384;42.628;23.380;2024-03-17T13:20:22;12.90;;;12.50;;
6693;SDS011;3384;42.628;23.380;2024-03-17T13:22:49;15.00;;;14.10;;
6693;SDS011;3384;42.628;23.380;2024-03-17T13:25:16;13.87;;;12.83;;
6693;SDS011;3384;42.628;23.380;2024-03-17T13:27:46;14.30;;;13.57;;
6693;SDS011;3384;42.628;23.380;2024-03-17T13:30:14;13.33;;;12.80;;
6693;SDS011;3384;42.628;23.380;2024-03-17T13:32:42;14.47;;;13.57;;
6693;SDS011;3384;42.628;23.380;2024-03-17T13:35:14;15.57;;;14.63;;
6693;SDS011;3384;42.628;23.380;2024-03-17T13:37:44;13.97;;;13.07;;
6693;SDS011;3384;42.628;23.380;2024-03-17T13:40:12;13.53;;;12.73;;
6693;SDS011;3384;42.628;23.380;2024-03-17T13:42:41;13.90;;;13.10;;
6693;SDS011;3384;42.628;23.380;2024-03-17T13:45:10;12.67;;;12.17;;
6693;SDS011;3384;42.628;23.380;2024-03-17T13:47:38;14.80;;;13.73;;
6693;SDS011;3384;42.628;23.380;2024-03-17T13:50:05;14.90;;;14.13;;
6693;SDS011;3384;42.628;23.380;2024-03-17T13:52:36;14.33;;;13.60;;
6693;SDS011;3384;42.628;23.380;2024-03-17T13:55:05;14.33;;;13.70;;
6693;SDS011;3384;42.628;23.380;2024-03-17T13:57:32;16.10;;;14.87;;
6693;SDS011;3384;42.628;23.380;2024-03-17T13:59:59;14.43;;;13.33;;
6693;SDS011;3384;42.628;23.380;2024-03-17T14:02:27;14.33;;;13.40;;
6693;SDS011;3384;42.628;23.380;2024-03-17T14:04:54;14.90;;;13.90;;
6693;SDS011;3384;42.628;23.380;2024-03-17T14:07:21;13.27;;;12.60;;
6693;SDS011;3384;42.628;23.380;2024-03-17T14:09:48;13.90;;;13.30;;
6693;SDS011;3384;42.628;23.380;2024-03-17T14:12:17;13.83;;;13.03;;
6693;SDS011;3384;42.628;23.380;2024-03-17T14:14:44;14.93;;;14.03;;
6693;SDS011;3384;42.628;23.380;2024-03-17T14:17:11;14.70;;;13.80;;
6693;SDS011;3384;42.628;23.380;2024-03-17T14:19:38;13.30;;;12.70;;
6693;SDS011;3384;42.628;23.380;2024-03-17T14:22:05;12.33;;;11.73;;
6693;SDS011;3384;42.628;23.380;2024-03-17T14:24:32;14.53;;;13.43;;
6693;SDS011;3384;42.628;23.380;2024-03-17T14:27:00;13.90;;;13.30;;
6693;SDS011;3384;42.628;23.380;2024-03-17T14:29:28;15.20;;;14.13;;
6693;SDS011;3384;42.628;23.380;2024-03-17T14:31:56;14.37;;;13.57;;
6693;SDS011;3384;42.628;23.380;2024-03-17T14:34:23;13.83;;;12.93;;
6693;SDS011;3384;42.628;23.380;2024-03-17T14:36:52;14.83;;;13.83;;
6693;SDS011;3384;42.628;23.380;2024-03-17T14:39:19;14.43;;;13.30;;
6693;SDS011;3384;42.628;23.380;2024-03-17T14:41:46;13.50;;;12.50;;
6693;SDS011;3384;42.628;23.380;2024-03-17T14:44:15;14.73;;;13.63;;
6693;SDS011;3384;42.628;23.380;2024-03-17T14:46:43;14.70;;;13.50;;
6693;SDS011;3384;42.628;23.380;2024-03-17T14:49:10;14.77;;;13.80;;
6693;SDS011;3384;42.628;23.380;2024-03-17T14:51:37;14.17;;;13.37;;
6693;SDS011;3384;42.628;23.380;2024-03-17T14:54:04;15.07;;;14.27;;
6693;SDS011;3384;42.628;23.380;2024-03-17T14:56:33;16.43;;;14.73;;
6693;SDS011;3384;42.628;23.380;2024-03-17T14:59:00;15.17;;;14.13;;
6693;SDS011;3384;42.628;23.380;2024-03-17T15:01:27;15.03;;;13.83;;